sensor_id;sensor_type;location;lat;lon;timestamp;pressure;altitude;pressure_sealevel;temperature;humidity
25560;BME280;13450;49.374;8.584;2023-10-13T00:01:59;100505.16;;;16.53;100.00
25560;BME280;13450;49.374;8.584;2023-10-13T00:04:25;100508.16;;;16.64;100.00
25560;BME280;13450;49.374;8.584;2023-10-13T00:06:52;100502.19;;;16.62;100.00
25560;BME280;13450;49.374;8.584;2023-10-13T00:09:18;100503.69;;;16.76;100.00
25560;BME280;13450;49.374;8.584;2023-10-13T00:11:49;100496.72;;;16.68;100.00
25560;BME280;13450;49.374;8.584;2023-10-13T00:14:15;100503.75;;;16.69;100.00
25560;BME280;13450;49.374;8.584;2023-10-13T00:16:43;100496.63;;;16.94;100.00
25560;BME280;13450;49.374;8.584;2023-10-13T00:19:33;100500.38;;;16.93;100.00
25560;BME280;13450;49.374;8.584;2023-10-13T00:22:07;100499.72;;;16.79;100.00
25560;BME280;13450;49.374;8.584;2023-10-13T00:24:36;100500.75;;;16.78;100.00
25560;BME280;13450;49.374;8.584;2023-10-13T00:27:19;100498.88;;;16.78;100.00
25560;BME280;13450;49.374;8.584;2023-10-13T00:29:56;100500.69;;;16.84;100.00
25560;BME280;13450;49.374;8.584;2023-10-13T00:32:45;100493.16;;;16.86;100.00
25560;BME280;13450;49.374;8.584;2023-10-13T00:35:12;100500.00;;;16.89;100.00
25560;BME280;13450;49.374;8.584;2023-10-13T00:37:50;100497.22;;;16.96;100.00
25560;BME280;13450;49.374;8.584;2023-10-13T00:40:19;100497.22;;;16.96;100.00
25560;BME280;13450;49.374;8.584;2023-10-13T00:42:59;100497.97;;;17.03;100.00
25560;BME280;13450;49.374;8.584;2023-10-13T00:45:47;100487.31;;;17.08;100.00
25560;BME280;13450;49.374;8.584;2023-10-13T00:48:29;100488.09;;;17.16;100.00
25560;BME280;13450;49.374;8.584;2023-10-13T00:51:03;100488.09;;;17.16;100.00
25560;BME280;13450;49.374;8.584;2023-10-13T00:53:31;100479.03;;;17.22;100.00
25560;BME280;13450;49.374;8.584;2023-10-13T00:56:02;100481.31;;;17.25;100.00
25560;BME280;13450;49.374;8.584;2023-10-13T00:58:33;100478.81;;;17.23;100.00
25560;BME280;13450;49.374;8.584;2023-10-13T01:01:00;100477.97;;;17.23;100.00
25560;BME280;13450;49.374;8.584;2023-10-13T01:03:46;100478.69;;;17.18;100.00
25560;BME280;13450;49.374;8.584;2023-10-13T01:06:17;100470.66;;;17.11;100.00
25560;BME280;13450;49.374;8.584;2023-10-13T01:08:49;100472.16;;;17.07;100.00
25560;BME280;13450;49.374;8.584;2023-10-13T01:11:18;100463.06;;;17.02;100.00
25560;BME280;13450;49.374;8.584;2023-10-13T01:13:49;100462.06;;;16.96;100.00
25560;BME280;13450;49.374;8.584;2023-10-13T01:16:17;100458.94;;;16.99;100.00
25560;BME280;13450;49.374;8.584;2023-10-13T01:18:42;100453.97;;;16.96;100.00
25560;BME280;13450;49.374;8.584;2023-10-13T01:21:16;100449.84;;;16.93;100.00
25560;BME280;13450;49.374;8.584;2023-10-13T01:23:45;100448.06;;;16.87;100.00
25560;BME280;13450;49.374;8.584;2023-10-13T01:26:12;100442.13;;;16.78;100.00
25560;BME280;13450;49.374;8.584;2023-10-13T01:28:46;100446.81;;;16.71;100.00
25560;BME280;13450;49.374;8.584;2023-10-13T01:31:15;100443.34;;;16.64;100.00
25560;BME280;13450;49.374;8.584;2023-10-13T01:33:54;100442.13;;;16.59;100.00
25560;BME280;13450;49.374;8.584;2023-10-13T01:36:21;100443.28;;;16.52;100.00
25560;BME280;13450;49.374;8.584;2023-10-13T01:38:46;100442.91;;;16.48;100.00
25560;BME280;13450;49.374;8.584;2023-10-13T01:41:12;100436.31;;;16.44;100.00
25560;BME280;13450;49.374;8.584;2023-10-13T01:43:39;100442.13;;;16.41;100.00
25560;BME280;13450;49.374;8.584;2023-10-13T01:46:06;100440.13;;;16.36;100.00
25560;BME280;13450;49.374;8.584;2023-10-13T01:48:32;100430.59;;;16.33;100.00
25560;BME280;13450;49.374;8.584;2023-10-13T01:51:00;100436.44;;;16.30;100.00
25560;BME280;13450;49.374;8.584;2023-10-13T01:53:27;100436.88;;;16.27;100.00
25560;BME280;13450;49.374;8.584;2023-10-13T01:55:54;100429.69;;;16.21;100.00
25560;BME280;13450;49.374;8.584;2023-10-13T01:58:22;100427.41;;;16.18;100.00
25560;BME280;13450;49.374;8.584;2023-10-13T02:00:48;100418.13;;;16.14;100.00
25560;BME280;13450;49.374;8.584;2023-10-13T02:03:14;100417.97;;;16.08;100.00
25560;BME280;13450;49.374;8.584;2023-10-13T02:05:44;100411.78;;;16.01;100.00
25560;BME280;13450;49.374;8.584;2023-10-13T02:08:17;100413.06;;;15.99;100.00
25560;BME280;13450;49.374;8.584;2023-10-13T02:10:48;100414.34;;;15.96;100.00
25560;BME280;13450;49.374;8.584;2023-10-13T02:13:14;100415.84;;;16.11;100.00
25560;BME280;13450;49.374;8.584;2023-10-13T02:15:47;100410.38;;;15.99;100.00
25560;BME280;13450;49.374;8.584;2023-10-13T02:18:17;100412.47;;;15.97;100.00
25560;BME280;13450;49.374;8.584;2023-10-13T02:20:51;100413.09;;;15.92;100.00
25560;BME280;13450;49.374;8.584;2023-10-13T02:23:21;100405.59;;;16.01;100.00
25560;BME280;13450;49.374;8.584;2023-10-13T02:25:46;100403.09;;;15.99;100.00
25560;BME280;13450;49.374;8.584;2023-10-13T02:28:12;100402.31;;;15.92;100.00
25560;BME280;13450;49.374;8.584;2023-10-13T02:30:47;100406.66;;;15.93;100.00
25560;BME280;13450;49.374;8.584;2023-10-13T02:33:16;100401.28;;;15.93;100.00
25560;BME280;13450;49.374;8.584;2023-10-13T02:36:03;100404.41;;;15.90;100.00
25560;BME280;13450;49.374;8.584;2023-10-13T02:38:33;100407.28;;;15.95;100.00
25560;BME280;13450;49.374;8.584;2023-10-13T02:41:15;100408.94;;;15.96;100.00
25560;BME280;13450;49.374;8.584;2023-10-13T02:44:01;100401.09;;;15.88;100.00
25560;BME280;13450;49.374;8.584;2023-10-13T02:46:26;100398.22;;;15.82;100.00
25560;BME280;13450;49.374;8.584;2023-10-13T02:48:54;100391.63;;;15.78;100.00
25560;BME280;13450;49.374;8.584;2023-10-13T02:51:25;100390.41;;;15.74;100.00
25560;BME280;13450;49.374;8.584;2023-10-13T02:54:00;100382.78;;;15.71;100.00
25560;BME280;13450;49.374;8.584;2023-10-13T02:56:28;100395.88;;;15.67;100.00
25560;BME280;13450;49.374;8.584;2023-10-13T02:58:56;100393.84;;;15.63;100.00
25560;BME280;13450;49.374;8.584;2023-10-13T03:01:22;100395.13;;;15.60;100.00
25560;BME280;13450;49.374;8.584;2023-10-13T03:03:54;100386.66;;;15.56;100.00
25560;BME280;13450;49.374;8.584;2023-10-13T03:06:22;100394.75;;;15.56;100.00
25560;BME280;13450;49.374;8.584;2023-10-13T03:09:09;100384.38;;;15.53;100.00
25560;BME280;13450;49.374;8.584;2023-10-13T03:11:44;100383.53;;;15.53;100.00
25560;BME280;13450;49.374;8.584;2023-10-13T03:14:21;100377.94;;;15.54;100.00
25560;BME280;13450;49.374;8.584;2023-10-13T03:16:57;100380.31;;;15.44;100.00
25560;BME280;13450;49.374;8.584;2023-10-13T03:19:43;100373.69;;;15.40;100.00
25560;BME280;13450;49.374;8.584;2023-10-13T03:22:14;100367.47;;;15.39;100.00
25560;BME280;13450;49.374;8.584;2023-10-13T03:24:42;100362.91;;;15.40;100.00
25560;BME280;13450;49.374;8.584;2023-10-13T03:27:16;100369.31;;;15.46;100.00
25560;BME280;13450;49.374;8.584;2023-10-13T03:29:43;100368.63;;;15.50;100.00
25560;BME280;13450;49.374;8.584;2023-10-13T03:32:13;100362.97;;;15.59;100.00
25560;BME280;13450;49.374;8.584;2023-10-13T03:34:40;100368.63;;;15.50;100.00
25560;BME280;13450;49.374;8.584;2023-10-13T03:37:19;100363.22;;;15.50;100.00
25560;BME280;13450;49.374;8.584;2023-10-13T03:40:11;100353.91;;;15.72;100.00
25560;BME280;13450;49.374;8.584;2023-10-13T03:42:56;100359.78;;;15.68;100.00
25560;BME280;13450;49.374;8.584;2023-10-13T03:45:36;100358.03;;;15.74;100.00
25560;BME280;13450;49.374;8.584;2023-10-13T03:48:05;100346.63;;;15.53;100.00
25560;BME280;13450;49.374;8.584;2023-10-13T03:50:37;100348.16;;;15.68;100.00
25560;BME280;13450;49.374;8.584;2023-10-13T03:53:11;100346.66;;;15.72;100.00
25560;BME280;13450;49.374;8.584;2023-10-13T03:55:38;100350.25;;;15.66;100.00
25560;BME280;13450;49.374;8.584;2023-10-13T03:58:13;100342.44;;;15.58;100.00
25560;BME280;13450;49.374;8.584;2023-10-13T04:00:38;100343.41;;;15.38;100.00
25560;BME280;13450;49.374;8.584;2023-10-13T04:03:08;100335.56;;;15.36;100.00
25560;BME280;13450;49.374;8.584;2023-10-13T04:05:41;100329.63;;;15.53;100.00
25560;BME280;13450;49.374;8.584;2023-10-13T04:08:09;100331.19;;;15.61;100.00
25560;BME280;13450;49.374;8.584;2023-10-13T04:10:54;100331.81;;;15.37;100.00
25560;BME280;13450;49.374;8.584;2023-10-13T04:13:20;100326.03;;;15.34;100.00
25560;BME280;13450;49.374;8.584;2023-10-13T04:16:04;100329.19;;;15.30;100.00
25560;BME280;13450;49.374;8.584;2023-10-13T04:18:41;100318.63;;;15.29;100.00
25560;BME280;13450;49.374;8.584;2023-10-13T04:21:35;100322.16;;;15.29;100.00
25560;BME280;13450;49.374;8.584;2023-10-13T04:24:25;100311.53;;;15.35;100.00
25560;BME280;13450;49.374;8.584;2023-10-13T04:27:05;100313.66;;;15.51;100.00
25560;BME280;13450;49.374;8.584;2023-10-13T04:29:39;100308.44;;;15.56;100.00
25560;BME280;13450;49.374;8.584;2023-10-13T04:32:14;100314.31;;;15.47;100.00
25560;BME280;13450;49.374;8.584;2023-10-13T04:34:45;100311.06;;;15.38;100.00
25560;BME280;13450;49.374;8.584;2023-10-13T04:37:16;100313.06;;;15.49;100.00
25560;BME280;13450;49.374;8.584;2023-10-13T04:40:08;100321.09;;;15.30;100.00
25560;BME280;13450;49.374;8.584;2023-10-13T04:42:37;100326.91;;;15.27;100.00
25560;BME280;13450;49.374;8.584;2023-10-13T04:45:15;100319.88;;;15.26;100.00
25560;BME280;13450;49.374;8.584;2023-10-13T04:48:02;100314.50;;;15.26;100.00
25560;BME280;13450;49.374;8.584;2023-10-13T04:50:54;100319.25;;;15.24;100.00
25560;BME280;13450;49.374;8.584;2023-10-13T04:53:45;100311.63;;;15.21;100.00
25560;BME280;13450;49.374;8.584;2023-10-13T04:56:29;100315.34;;;15.20;100.00
25560;BME280;13450;49.374;8.584;2023-10-13T04:59:03;100307.25;;;15.20;100.00
25560;BME280;13450;49.374;8.584;2023-10-13T05:01:43;100302.50;;;15.22;100.00
25560;BME280;13450;49.374;8.584;2023-10-13T05:04:35;100303.09;;;15.24;100.00
25560;BME280;13450;49.374;8.584;2023-10-13T05:07:19;100295.47;;;15.21;100.00
25560;BME280;13450;49.374;8.584;2023-10-13T05:10:05;100292.97;;;15.20;100.00
25560;BME280;13450;49.374;8.584;2023-10-13T05:12:49;100291.56;;;15.17;100.00
25560;BME280;13450;49.374;8.584;2023-10-13T05:15:33;100288.69;;;15.12;100.00
25560;BME280;13450;49.374;8.584;2023-10-13T05:18:16;100288.91;;;15.10;100.00
25560;BME280;13450;49.374;8.584;2023-10-13T05:21:00;100289.13;;;15.09;100.00
25560;BME280;13450;49.374;8.584;2023-10-13T05:23:44;100291.44;;;15.05;100.00
25560;BME280;13450;49.374;8.584;2023-10-13T05:26:44;100293.50;;;15.03;100.00
25560;BME280;13450;49.374;8.584;2023-10-13T05:29:30;100291.50;;;14.98;100.00
25560;BME280;13450;49.374;8.584;2023-10-13T05:32:15;100279.03;;;14.97;100.00
25560;BME280;13450;49.374;8.584;2023-10-13T05:34:58;100286.31;;;14.97;100.00
25560;BME280;13450;49.374;8.584;2023-10-13T05:37:42;100284.69;;;15.21;100.00
25560;BME280;13450;49.374;8.584;2023-10-13T05:40:26;100287.09;;;15.29;100.00
25560;BME280;13450;49.374;8.584;2023-10-13T05:43:10;100285.59;;;15.08;100.00
25560;BME280;13450;49.374;8.584;2023-10-13T05:46:00;100283.16;;;15.00;100.00
25560;BME280;13450;49.374;8.584;2023-10-13T05:48:44;100288.13;;;15.03;100.00
25560;BME280;13450;49.374;8.584;2023-10-13T05:51:28;100280.25;;;15.01;100.00
25560;BME280;13450;49.374;8.584;2023-10-13T05:54:13;100274.50;;;14.98;100.00
25560;BME280;13450;49.374;8.584;2023-10-13T05:59:24;100266.13;;;15.06;100.00
25560;BME280;13450;49.374;8.584;2023-10-13T06:02:08;100262.38;;;15.07;100.00
25560;BME280;13450;49.374;8.584;2023-10-13T06:04:52;100261.13;;;15.10;100.00
25560;BME280;13450;49.374;8.584;2023-10-13T06:07:36;100259.06;;;15.12;100.00
25560;BME280;13450;49.374;8.584;2023-10-13T06:10:20;100262.13;;;15.15;100.00
25560;BME280;13450;49.374;8.584;2023-10-13T06:13:04;100266.41;;;15.23;100.00
25560;BME280;13450;49.374;8.584;2023-10-13T06:15:48;100263.88;;;15.28;100.00
25560;BME280;13450;49.374;8.584;2023-10-13T06:18:31;100263.66;;;15.30;100.00
25560;BME280;13450;49.374;8.584;2023-10-13T06:21:15;100263.59;;;15.37;100.00
25560;BME280;13450;49.374;8.584;2023-10-13T06:23:59;100272.06;;;15.40;100.00
25560;BME280;13450;49.374;8.584;2023-10-13T06:26:47;100269.28;;;15.47;100.00
25560;BME280;13450;49.374;8.584;2023-10-13T06:29:31;100273.38;;;15.56;100.00
25560;BME280;13450;49.374;8.584;2023-10-13T06:31:56;100277.03;;;15.62;100.00
25560;BME280;13450;49.374;8.584;2023-10-13T06:34:23;100284.03;;;15.70;100.00
25560;BME280;13450;49.374;8.584;2023-10-13T06:37:04;100284.19;;;15.75;100.00
25560;BME280;13450;49.374;8.584;2023-10-13T06:39:47;100275.81;;;15.84;100.00
25560;BME280;13450;49.374;8.584;2023-10-13T06:42:12;100283.59;;;15.92;100.00
25560;BME280;13450;49.374;8.584;2023-10-13T06:44:37;100286.22;;;15.99;100.00
25560;BME280;13450;49.374;8.584;2023-10-13T06:47:05;100284.06;;;16.07;100.00
25560;BME280;13450;49.374;8.584;2023-10-13T06:49:30;100293.28;;;16.18;100.00
25560;BME280;13450;49.374;8.584;2023-10-13T06:52:04;100295.22;;;16.30;100.00
25560;BME280;13450;49.374;8.584;2023-10-13T06:54:32;100295.13;;;16.37;100.00
25560;BME280;13450;49.374;8.584;2023-10-13T06:56:58;100291.53;;;16.43;100.00
25560;BME280;13450;49.374;8.584;2023-10-13T06:59:24;100300.34;;;16.50;100.00
25560;BME280;13450;49.374;8.584;2023-10-13T07:01:51;100303.19;;;16.55;100.00
25560;BME280;13450;49.374;8.584;2023-10-13T07:04:17;100305.44;;;16.58;100.00
25560;BME280;13450;49.374;8.584;2023-10-13T07:06:43;100308.91;;;16.66;100.00
25560;BME280;13450;49.374;8.584;2023-10-13T07:09:16;100291.97;;;16.70;100.00
25560;BME280;13450;49.374;8.584;2023-10-13T07:12:05;100303.31;;;16.79;100.00
25560;BME280;13450;49.374;8.584;2023-10-13T07:14:45;100305.69;;;16.88;100.00
25560;BME280;13450;49.374;8.584;2023-10-13T07:17:18;100297.22;;;16.96;100.00
25560;BME280;13450;49.374;8.584;2023-10-13T07:19:52;100299.03;;;17.02;100.00
25560;BME280;13450;49.374;8.584;2023-10-13T07:22:36;100296.25;;;17.09;100.00
25560;BME280;13450;49.374;8.584;2023-10-13T07:25:05;100299.91;;;17.15;100.00
25560;BME280;13450;49.374;8.584;2023-10-13T07:27:31;100306.00;;;17.22;100.00
25560;BME280;13450;49.374;8.584;2023-10-13T07:30:00;100302.13;;;17.30;100.00
25560;BME280;13450;49.374;8.584;2023-10-13T07:32:53;100307.09;;;17.33;100.00
25560;BME280;13450;49.374;8.584;2023-10-13T07:35:22;100300.50;;;17.41;100.00
25560;BME280;13450;49.374;8.584;2023-10-13T07:37:56;100298.50;;;17.48;100.00
25560;BME280;13450;49.374;8.584;2023-10-13T07:40:27;100301.09;;;17.55;100.00
25560;BME280;13450;49.374;8.584;2023-10-13T07:42:56;100303.69;;;17.61;100.00
25560;BME280;13450;49.374;8.584;2023-10-13T07:45:36;100304.25;;;17.63;100.00
25560;BME280;13450;49.374;8.584;2023-10-13T07:48:09;100311.09;;;17.66;100.00
25560;BME280;13450;49.374;8.584;2023-10-13T07:50:44;100301.09;;;17.67;100.00
25560;BME280;13450;49.374;8.584;2023-10-13T07:53:11;100294.50;;;17.74;100.00
25560;BME280;13450;49.374;8.584;2023-10-13T07:55:50;100282.50;;;17.82;100.00
25560;BME280;13450;49.374;8.584;2023-10-13T07:58:22;100275.66;;;17.91;100.00
25560;BME280;13450;49.374;8.584;2023-10-13T08:00:53;100274.81;;;18.03;100.00
25560;BME280;13450;49.374;8.584;2023-10-13T08:03:25;100274.81;;;18.15;100.00
25560;BME280;13450;49.374;8.584;2023-10-13T08:06:10;100275.84;;;18.26;100.00
25560;BME280;13450;49.374;8.584;2023-10-13T08:08:35;100272.84;;;18.39;100.00
25560;BME280;13450;49.374;8.584;2023-10-13T08:11:08;100274.69;;;18.51;100.00
25560;BME280;13450;49.374;8.584;2023-10-13T08:13:43;100276.75;;;18.61;100.00
25560;BME280;13450;49.374;8.584;2023-10-13T08:16:14;100273.41;;;18.71;100.00
25560;BME280;13450;49.374;8.584;2023-10-13T08:18:52;100281.72;;;18.81;100.00
25560;BME280;13450;49.374;8.584;2023-10-13T08:21:18;100273.78;;;18.91;100.00
25560;BME280;13450;49.374;8.584;2023-10-13T08:23:51;100278.03;;;19.04;100.00
25560;BME280;13450;49.374;8.584;2023-10-13T08:26:23;100276.84;;;19.12;100.00
25560;BME280;13450;49.374;8.584;2023-10-13T08:29:00;100278.66;;;19.24;100.00
25560;BME280;13450;49.374;8.584;2023-10-13T08:31:58;100276.09;;;19.34;100.00
25560;BME280;13450;49.374;8.584;2023-10-13T08:34:33;100279.78;;;19.45;100.00
25560;BME280;13450;49.374;8.584;2023-10-13T08:37:08;100277.22;;;19.55;100.00
25560;BME280;13450;49.374;8.584;2023-10-13T08:39:49;100280.41;;;19.69;100.00
25560;BME280;13450;49.374;8.584;2023-10-13T08:42:37;100276.25;;;19.84;100.00
25560;BME280;13450;49.374;8.584;2023-10-13T08:50:37;100267.38;;;20.11;100.00
25560;BME280;13450;49.374;8.584;2023-10-13T08:56:08;100266.97;;;20.47;100.00
25560;BME280;13450;49.374;8.584;2023-10-13T08:58:38;100265.22;;;20.63;100.00
25560;BME280;13450;49.374;8.584;2023-10-13T09:04:19;100264.25;;;20.74;94.81
25560;BME280;13450;49.374;8.584;2023-10-13T09:12:25;100268.50;;;21.25;86.10
25560;BME280;13450;49.374;8.584;2023-10-13T09:17:32;100267.53;;;21.47;89.68
25560;BME280;13450;49.374;8.584;2023-10-13T09:20:06;100257.78;;;21.56;81.90
25560;BME280;13450;49.374;8.584;2023-10-13T09:22:49;100262.22;;;21.68;80.77
25560;BME280;13450;49.374;8.584;2023-10-13T09:25:27;100248.69;;;21.78;79.84
25560;BME280;13450;49.374;8.584;2023-10-13T09:27:58;100239.50;;;21.95;80.58
25560;BME280;13450;49.374;8.584;2023-10-13T09:30:26;100235.19;;;22.04;79.46
25560;BME280;13450;49.374;8.584;2023-10-13T09:33:04;100235.75;;;22.17;83.83
25560;BME280;13450;49.374;8.584;2023-10-13T09:35:33;100237.66;;;22.21;81.00
25560;BME280;13450;49.374;8.584;2023-10-13T09:38:00;100227.09;;;22.36;80.80
25560;BME280;13450;49.374;8.584;2023-10-13T09:40:29;100230.38;;;22.48;80.74
25560;BME280;13450;49.374;8.584;2023-10-13T09:42:59;100217.34;;;22.60;77.61
25560;BME280;13450;49.374;8.584;2023-10-13T09:45:31;100215.69;;;22.65;76.52
25560;BME280;13450;49.374;8.584;2023-10-13T09:48:33;100207.25;;;22.82;71.33
25560;BME280;13450;49.374;8.584;2023-10-13T09:51:04;100203.16;;;22.58;68.94
25560;BME280;13450;49.374;8.584;2023-10-13T09:53:35;100197.69;;;22.69;69.22
25560;BME280;13450;49.374;8.584;2023-10-13T09:56:11;100197.97;;;22.93;69.98
25560;BME280;13450;49.374;8.584;2023-10-13T09:58:50;100198.75;;;23.20;72.08
25560;BME280;13450;49.374;8.584;2023-10-13T10:01:23;100193.28;;;23.35;67.24
25560;BME280;13450;49.374;8.584;2023-10-13T10:04:13;100194.31;;;23.50;65.94
25560;BME280;13450;49.374;8.584;2023-10-13T10:06:56;100204.03;;;23.77;70.21
25560;BME280;13450;49.374;8.584;2023-10-13T10:09:29;100189.81;;;23.85;62.24
25560;BME280;13450;49.374;8.584;2023-10-13T10:15:01;100186.75;;;24.42;60.42
25560;BME280;13450;49.374;8.584;2023-10-13T10:17:45;100192.06;;;24.63;57.44
25560;BME280;13450;49.374;8.584;2023-10-13T10:20:10;100179.84;;;25.15;53.98
25560;BME280;13450;49.374;8.584;2023-10-13T10:23:01;100191.53;;;25.94;50.32
25560;BME280;13450;49.374;8.584;2023-10-13T10:25:33;100195.78;;;27.52;44.58
25560;BME280;13450;49.374;8.584;2023-10-13T10:30:36;100196.88;;;30.42;36.30
25560;BME280;13450;49.374;8.584;2023-10-13T10:33:04;100196.97;;;31.29;34.43
25560;BME280;13450;49.374;8.584;2023-10-13T10:35:38;100191.66;;;32.94;33.78
25560;BME280;13450;49.374;8.584;2023-10-13T10:38:12;100191.16;;;34.33;30.69
25560;BME280;13450;49.374;8.584;2023-10-13T10:40:51;100191.09;;;34.90;28.06
25560;BME280;13450;49.374;8.584;2023-10-13T10:43:22;100187.16;;;35.24;26.58
25560;BME280;13450;49.374;8.584;2023-10-13T10:45:53;100181.09;;;32.75;29.46
25560;BME280;13450;49.374;8.584;2023-10-13T10:48:25;100166.88;;;30.97;31.54
25560;BME280;13450;49.374;8.584;2023-10-13T10:50:56;100165.38;;;30.43;38.31
25560;BME280;13450;49.374;8.584;2023-10-13T10:53:24;100164.44;;;30.30;36.52
25560;BME280;13450;49.374;8.584;2023-10-13T10:56:06;100156.16;;;30.30;33.55
25560;BME280;13450;49.374;8.584;2023-10-13T10:58:45;100154.38;;;30.25;33.65
25560;BME280;13450;49.374;8.584;2023-10-13T11:01:12;100149.63;;;29.73;34.22
25560;BME280;13450;49.374;8.584;2023-10-13T11:03:57;100144.81;;;31.36;32.43
25560;BME280;13450;49.374;8.584;2023-10-13T11:06:26;100136.13;;;31.68;31.51
25560;BME280;13450;49.374;8.584;2023-10-13T11:09:04;100140.97;;;30.72;33.21
25560;BME280;13450;49.374;8.584;2023-10-13T11:11:43;100125.22;;;30.63;34.64
25560;BME280;13450;49.374;8.584;2023-10-13T11:14:19;100122.56;;;30.93;32.64
25560;BME280;13450;49.374;8.584;2023-10-13T11:16:48;100124.81;;;31.61;31.64
25560;BME280;13450;49.374;8.584;2023-10-13T11:19:18;100115.22;;;33.56;29.51
25560;BME280;13450;49.374;8.584;2023-10-13T11:21:51;100113.06;;;33.24;30.55
25560;BME280;13450;49.374;8.584;2023-10-13T11:24:17;100113.75;;;32.37;30.64
25560;BME280;13450;49.374;8.584;2023-10-13T11:26:43;100110.25;;;32.28;32.34
25560;BME280;13450;49.374;8.584;2023-10-13T11:29:31;100113.84;;;33.37;29.04
25560;BME280;13450;49.374;8.584;2023-10-13T11:31:59;100105.66;;;34.39;27.99
25560;BME280;13450;49.374;8.584;2023-10-13T11:34:25;100110.53;;;33.85;28.11
25560;BME280;13450;49.374;8.584;2023-10-13T11:36:55;100102.72;;;34.96;27.08
25560;BME280;13450;49.374;8.584;2023-10-13T11:39:20;100111.50;;;36.29;27.26
25560;BME280;13450;49.374;8.584;2023-10-13T11:41:51;100108.19;;;37.48;24.33
25560;BME280;13450;49.374;8.584;2023-10-13T11:44:20;100104.13;;;38.06;23.70
25560;BME280;13450;49.374;8.584;2023-10-13T11:46:45;100109.53;;;38.26;24.04
25560;BME280;13450;49.374;8.584;2023-10-13T11:49:13;100097.41;;;37.46;24.71
25560;BME280;13450;49.374;8.584;2023-10-13T11:51:46;100087.72;;;38.01;23.73
25560;BME280;13450;49.374;8.584;2023-10-13T11:56:38;100080.19;;;39.78;21.49
25560;BME280;13450;49.374;8.584;2023-10-13T11:59:04;100076.31;;;40.73;23.88
25560;BME280;13450;49.374;8.584;2023-10-13T12:01:41;100074.72;;;40.87;21.06
25560;BME280;13450;49.374;8.584;2023-10-13T12:04:25;100063.50;;;40.90;20.53
25560;BME280;13450;49.374;8.584;2023-10-13T12:07:08;100059.78;;;41.19;20.13
25560;BME280;13450;49.374;8.584;2023-10-13T12:09:43;100055.91;;;40.36;20.54
25560;BME280;13450;49.374;8.584;2023-10-13T12:12:29;100048.09;;;39.49;21.92
25560;BME280;13450;49.374;8.584;2023-10-13T12:14:56;100037.78;;;39.65;21.23
25560;BME280;13450;49.374;8.584;2023-10-13T12:17:28;100041.44;;;37.62;23.27
25560;BME280;13450;49.374;8.584;2023-10-13T12:19:59;100032.19;;;36.43;23.99
25560;BME280;13450;49.374;8.584;2023-10-13T12:22:25;100022.00;;;35.44;24.70
25560;BME280;13450;49.374;8.584;2023-10-13T12:24:56;100019.38;;;36.88;24.92
25560;BME280;13450;49.374;8.584;2023-10-13T12:27:22;100022.91;;;37.81;23.39
25560;BME280;13450;49.374;8.584;2023-10-13T12:30:01;100009.63;;;36.75;24.16
25560;BME280;13450;49.374;8.584;2023-10-13T12:32:33;99996.88;;;36.74;24.68
25560;BME280;13450;49.374;8.584;2023-10-13T12:35:00;100004.88;;;35.42;25.41
25560;BME280;13450;49.374;8.584;2023-10-13T12:37:47;99995.53;;;34.95;25.76
25560;BME280;13450;49.374;8.584;2023-10-13T12:40:22;99996.53;;;35.42;27.40
25560;BME280;13450;49.374;8.584;2023-10-13T12:43:05;99993.72;;;35.03;25.98
25560;BME280;13450;49.374;8.584;2023-10-13T12:45:50;99988.28;;;34.22;26.00
25560;BME280;13450;49.374;8.584;2023-10-13T12:48:36;99991.56;;;32.85;28.07
25560;BME280;13450;49.374;8.584;2023-10-13T12:51:20;99983.69;;;32.37;29.90
25560;BME280;13450;49.374;8.584;2023-10-13T12:56:13;99984.47;;;32.13;29.99
25560;BME280;13450;49.374;8.584;2023-10-13T12:58:38;99978.59;;;32.39;28.90
25560;BME280;13450;49.374;8.584;2023-10-13T13:01:06;99985.31;;;33.42;30.10
25560;BME280;13450;49.374;8.584;2023-10-13T13:03:32;99987.69;;;33.56;27.84
25560;BME280;13450;49.374;8.584;2023-10-13T13:05:58;99985.31;;;34.15;27.23
25560;BME280;13450;49.374;8.584;2023-10-13T13:08:24;99985.06;;;33.75;27.93
25560;BME280;13450;49.374;8.584;2023-10-13T13:10:50;99973.06;;;33.43;27.99
25560;BME280;13450;49.374;8.584;2023-10-13T13:13:16;99971.69;;;32.70;28.60
25560;BME280;13450;49.374;8.584;2023-10-13T13:15:49;99975.00;;;33.42;28.30
25560;BME280;13450;49.374;8.584;2023-10-13T13:18:14;99966.94;;;33.94;28.00
25560;BME280;13450;49.374;8.584;2023-10-13T13:20:40;99961.59;;;35.84;26.05
25560;BME280;13450;49.374;8.584;2023-10-13T13:23:09;99951.38;;;35.69;24.95
25560;BME280;13450;49.374;8.584;2023-10-13T13:25:37;99956.13;;;34.89;26.67
25560;BME280;13450;49.374;8.584;2023-10-13T13:28:07;99935.25;;;32.18;28.75
25560;BME280;13450;49.374;8.584;2023-10-13T13:30:35;99933.81;;;31.87;31.63
25560;BME280;13450;49.374;8.584;2023-10-13T13:33:02;99925.28;;;31.25;30.11
25560;BME280;13450;49.374;8.584;2023-10-13T13:35:40;99924.56;;;30.73;30.97
25560;BME280;13450;49.374;8.584;2023-10-13T13:38:08;99920.19;;;30.41;31.65
25560;BME280;13450;49.374;8.584;2023-10-13T13:40:54;99910.66;;;30.60;30.94
25560;BME280;13450;49.374;8.584;2023-10-13T13:43:21;99904.19;;;30.56;31.21
25560;BME280;13450;49.374;8.584;2023-10-13T13:46:07;99915.41;;;30.21;31.60
25560;BME280;13450;49.374;8.584;2023-10-13T13:48:41;99902.81;;;33.51;28.51
25560;BME280;13450;49.374;8.584;2023-10-13T13:51:12;99894.63;;;34.71;25.99
25560;BME280;13450;49.374;8.584;2023-10-13T13:53:42;99891.53;;;36.53;24.16
25560;BME280;13450;49.374;8.584;2023-10-13T13:56:13;99883.97;;;36.26;24.69